Terminal Aerodrome Forecast
Issued by NWS Flagstaff, AZ

Home | Current Version | Previous Version | Text Only | Print | Product List | Glossary On
Versions: 1 2 3 4 5 6 7 8 9 10 11 12 13 14 15 16 17 18 19
000
FTUS45 KFGZ 240655 AAA
TAFFLG
TAF AMD
KFLG 240655Z 2407/2506 VRB05KT P6SM VCSH FEW040 BKN080
      TEMPO 2407/2410 6SM BCFG BKN002 OVC090
     FM241500 VRB05KT P6SM -SHRA SCT020 OVC040=

USA.gov is the U.S. government's official web portal to all federal, state and local government web resources and services.